KFRGKSEG

Guest
Details From KFRG - REPUBLIC
To KSEG - PENN VALLEY
Flight Number -
Tags generated
Created
Modified
Stats Distance 157 nm / 291 km
Max Altitude 18,800 ft / 5,730 m
Waypoints 3
Social Downloads 0
Likes 0
Share VATSIM

Download

Looking for another format? Having issues loading an existing format? Contact us
Advertisement - Login to hide

Notes

Basic altitude profile: - Ascent Rate: 500ft/min - Ascent Speed: 250kts - Cruise Altitude: 35000ft - Cruise Speed: 420kts - Descent Rate: 1500ft/min - Descent Speed: 250kts Options: - Use NATs: yes - Use PACOTS: yes - Use low airways: yes - Use high airways: no

Route

KFRG BWZ KSEG

ID Type Via Altitude Latitude Longitude Leg Dist Tot Dist Heading (true) Name
O KFRG APT - 0 ft / 0 m 40.72883˚ -73.41351˚ - 0 nm - REPUBLIC
BWZ VOR - 18,800 ft / 5,730 m 40.79844˚ -74.82183˚ 64 nm 64 nm 274° / 273° BROADWAY VOR-DME
O KSEG APT - 0 ft / 0 m 40.82052˚ -76.86379˚ 92 nm 157 nm 271° / 270° PENN VALLEY

Altitude Profile

Advertisement - Login to hide

KFRG

Details ICAO KFRG
Name REPUBLIC
Region United States
Timezone America/New_York (UTC-5.0)
Stats Elevation 82 ft / 25 m (AMSL)
Location 40.728829° -73.413506°
Runways 2
Magnetic Variation 13.194° W

METAR

KFRG 171353Z 00000KT 10SM FEW039 OVC060 M01/M06 A3030 RMK AO2 SLP259 T10061061

Decode

TAF

Not found

Departure Runways

ID Width Length Bearing (true) Bearing (mag) Surface Threshold Offset Overrun Length
01 150 ft / 46 m 5,525 ft / 1,684 m 359.19° 12.38° Asphalt 0 ft / 0 m 0 ft / 0 m
14 150 ft / 46 m 6,823 ft / 2,080 m 132.34° 145.53° Asphalt 660 ft / 201 m 0 ft / 0 m
19 150 ft / 46 m 5,525 ft / 1,684 m 179.19° 192.38° Asphalt 789 ft / 240 m 0 ft / 0 m
32 150 ft / 46 m 6,823 ft / 2,080 m 312.35° 325.54° Asphalt 0 ft / 0 m 0 ft / 0 m

KSEG

Details ICAO KSEG
Name PENN VALLEY
Region United States
Timezone America/New_York (UTC-5.0)
Stats Elevation 450 ft / 137 m (AMSL)
Location 40.820521° -76.863788°
Runways 1
Magnetic Variation 11.358° W

METAR

KSEG 171353Z AUTO 00000KT 9SM BKN050 00/M02 A3026 RMK AO2 SLP252 T00001022

Decode

TAF

Not found

Destination Runways

ID Width Length Bearing (true) Bearing (mag) Surface Threshold Offset Overrun Length
17 75 ft / 23 m 3,804 ft / 1,159 m 158.86° 170.22° Asphalt 0 ft / 0 m 0 ft / 0 m
35 75 ft / 23 m 3,804 ft / 1,159 m 338.87° 350.23° Asphalt 0 ft / 0 m 0 ft / 0 m